EDDB

Berlin-Schönefeld International Airport

Berlin, Germany
METAR EDDB 221750Z 11004KT CAVOK 20/09 Q1012 NOSIG
Observed Flight Rules
Apr-22 @ 17:50 UTC (28 minutes ago) Visual Flight Rules
Wind Visibility Clouds
110° at 4 knots 10,000+ meters
  • Clear skies
Temperatures Readings
Current 20°C / 68°F
Dewpoint 9°C / 48°F
Humidity 49%
Altimeter 29.88" Hg
Pressure 1012 hPa
Elevation 48
METAR EDDB 221750Z 11004KT CAVOK 20/09 Q1012 NOSIG
Observed Flight Rules
Apr-22 @ 17:50 UTC
(28 minutes ago)
VFR
Wind Visibility
110° at 4 knots 10,000+ meters
Clouds
  • Clear skies
Temperature Dewpoint
20°C / 68°F 9°C / 48°F
Humidity Altimeter Pressure
49% 29.88" Hg 1012 hPa